createdAt,value
2022-08-21T00:00:59.501Z,15
2022-08-21T00:01:59.621Z,10
2022-08-21T00:02:59.634Z,13
2022-08-21T00:03:59.501Z,11
2022-08-21T00:04:59.552Z,10
2022-08-21T00:05:59.421Z,11
2022-08-21T00:06:59.535Z,10
2022-08-21T00:07:59.399Z,11
2022-08-21T00:09:02.966Z,9
2022-08-21T00:09:59.547Z,9
2022-08-21T00:10:59.556Z,10
2022-08-21T00:11:59.460Z,8
2022-08-21T00:12:59.673Z,12
2022-08-21T00:13:59.440Z,9
2022-08-21T00:14:59.411Z,9
2022-08-21T00:15:59.483Z,10
2022-08-21T00:17:00.246Z,12
2022-08-21T00:17:59.492Z,7
2022-08-21T00:18:59.409Z,11
2022-08-21T00:19:59.534Z,10
2022-08-21T00:20:59.520Z,9
2022-08-21T00:21:59.465Z,8
2022-08-21T00:22:59.447Z,7
2022-08-21T00:23:59.532Z,8
2022-08-21T00:24:59.571Z,10
2022-08-21T00:25:59.446Z,9
2022-08-21T00:26:59.446Z,9
2022-08-21T00:27:59.460Z,7
2022-08-21T00:28:59.409Z,11
2022-08-21T00:29:59.486Z,10
2022-08-21T00:30:59.600Z,9
2022-08-21T00:31:59.480Z,11
2022-08-21T00:32:59.766Z,8
2022-08-21T00:34:00.694Z,11
2022-08-21T00:34:59.452Z,8
2022-08-21T00:35:59.407Z,9
2022-08-21T00:36:59.556Z,8
2022-08-21T00:37:59.513Z,9
2022-08-21T00:38:59.543Z,10
2022-08-21T00:39:59.505Z,8
2022-08-21T00:40:59.602Z,8
2022-08-21T00:41:59.450Z,10
2022-08-21T00:42:59.480Z,10
2022-08-21T00:43:59.454Z,15
2022-08-21T00:44:59.481Z,9
2022-08-21T00:45:59.468Z,11
2022-08-21T00:46:59.475Z,10
2022-08-21T00:47:59.488Z,8
2022-08-21T00:48:59.470Z,8
2022-08-21T00:49:59.445Z,8
2022-08-21T00:50:59.472Z,10
2022-08-21T00:51:59.521Z,8
2022-08-21T00:52:59.708Z,10
2022-08-21T00:53:59.450Z,9
2022-08-21T00:54:59.442Z,11
2022-08-21T00:55:59.474Z,10
2022-08-21T00:57:00.641Z,9
2022-08-21T00:57:59.470Z,9
2022-08-21T00:58:59.485Z,12
2022-08-21T00:59:59.573Z,10
2022-08-21T01:00:59.650Z,8
2022-08-21T01:01:59.818Z,13
2022-08-21T01:03:00.206Z,9
2022-08-21T01:03:59.527Z,10
2022-08-21T01:05:00.094Z,9
2022-08-21T01:05:59.514Z,9
2022-08-21T01:06:59.707Z,11
2022-08-21T01:07:59.458Z,8
2022-08-21T01:08:59.465Z,7
2022-08-21T01:09:59.480Z,11
2022-08-21T01:10:59.450Z,8
2022-08-21T01:11:59.452Z,9
2022-08-21T01:12:59.822Z,8
2022-08-21T01:13:59.684Z,9
2022-08-21T01:14:59.531Z,11
2022-08-21T01:15:59.513Z,9
2022-08-21T01:16:59.530Z,10
2022-08-21T01:17:59.533Z,8
2022-08-21T01:18:59.539Z,8
2022-08-21T01:19:59.559Z,11
2022-08-21T01:20:59.554Z,7
2022-08-21T01:21:59.525Z,10
2022-08-21T01:22:59.546Z,6
2022-08-21T01:23:59.521Z,8
2022-08-21T01:24:59.440Z,12
2022-08-21T01:25:59.415Z,7
2022-08-21T01:26:59.475Z,7
2022-08-21T01:27:59.556Z,7
2022-08-21T01:28:59.469Z,12
2022-08-21T01:29:59.423Z,8
2022-08-21T01:30:59.469Z,8
2022-08-21T01:31:59.479Z,9
2022-08-21T01:32:59.590Z,8
2022-08-21T01:33:59.495Z,10
2022-08-21T01:34:59.507Z,6
2022-08-21T01:35:59.426Z,9
2022-08-21T01:36:59.546Z,10
2022-08-21T01:37:59.521Z,10
2022-08-21T01:38:59.529Z,10
2022-08-21T01:39:59.602Z,9
2022-08-21T01:40:59.471Z,9
2022-08-21T01:41:59.543Z,11
2022-08-21T01:42:59.570Z,9
2022-08-21T01:43:59.458Z,10
2022-08-21T01:44:59.468Z,9
2022-08-21T01:45:59.468Z,10
2022-08-21T01:46:59.473Z,9
2022-08-21T01:47:59.480Z,10
2022-08-21T01:48:59.484Z,9
2022-08-21T01:49:59.503Z,8
2022-08-21T01:50:59.418Z,9
2022-08-21T01:51:59.520Z,9
2022-08-21T01:52:59.691Z,7
2022-08-21T01:53:59.518Z,11
2022-08-21T01:54:59.498Z,9
2022-08-21T01:55:59.537Z,11
2022-08-21T01:56:59.537Z,7
2022-08-21T01:57:59.444Z,10
2022-08-21T01:58:59.444Z,9
2022-08-21T01:59:59.467Z,9
2022-08-21T02:00:59.582Z,9
2022-08-21T02:01:59.564Z,12
2022-08-21T02:02:59.705Z,10
2022-08-21T02:03:59.482Z,9
2022-08-21T02:04:59.456Z,8
2022-08-21T02:05:59.497Z,10
2022-08-21T02:06:59.519Z,9
2022-08-21T02:07:59.420Z,12
2022-08-21T02:08:59.511Z,9
2022-08-21T02:09:59.544Z,9
2022-08-21T02:10:59.542Z,11
2022-08-21T02:11:59.537Z,11
2022-08-21T02:12:59.656Z,10
2022-08-21T02:13:59.440Z,12
2022-08-21T02:14:59.452Z,11
2022-08-21T02:15:59.473Z,14
2022-08-21T02:17:05.147Z,11
2022-08-21T02:17:59.459Z,11
2022-08-21T02:18:59.442Z,9
2022-08-21T02:19:59.441Z,12
2022-08-21T02:20:59.486Z,10
2022-08-21T02:21:59.494Z,8
2022-08-21T02:22:59.776Z,11
2022-08-21T02:23:59.505Z,10
2022-08-21T02:24:59.519Z,10
2022-08-21T02:25:59.427Z,10
2022-08-21T02:26:59.464Z,12
2022-08-21T02:27:59.421Z,11
2022-08-21T02:28:59.425Z,9
2022-08-21T02:29:59.480Z,13
2022-08-21T02:30:59.547Z,10
2022-08-21T02:31:59.432Z,10
2022-08-21T02:32:59.626Z,10
2022-08-21T02:33:59.472Z,9
2022-08-21T02:34:59.491Z,9
2022-08-21T02:35:59.487Z,11
2022-08-21T02:36:59.905Z,9
2022-08-21T02:37:59.495Z,11
2022-08-21T02:38:59.500Z,13
2022-08-21T02:39:59.587Z,12
2022-08-21T02:40:59.426Z,12
2022-08-21T02:41:59.520Z,13
2022-08-21T02:42:59.795Z,10
2022-08-21T02:43:59.535Z,11
2022-08-21T02:44:59.544Z,8
2022-08-21T02:45:59.434Z,10
2022-08-21T02:46:59.437Z,10
2022-08-21T02:47:59.564Z,9
2022-08-21T02:48:59.557Z,10
2022-08-21T02:49:59.480Z,9
2022-08-21T02:50:59.486Z,12
2022-08-21T02:51:59.901Z,11
2022-08-21T02:53:00.055Z,10
2022-08-21T02:53:59.498Z,9
2022-08-21T02:54:59.437Z,9
2022-08-21T02:55:59.436Z,8
2022-08-21T02:56:59.434Z,9
2022-08-21T02:57:59.523Z,10
2022-08-21T02:58:59.528Z,9
2022-08-21T02:59:59.470Z,8
2022-08-21T03:00:59.451Z,10
2022-08-21T03:01:59.501Z,10
2022-08-21T03:02:59.652Z,8
2022-08-21T03:03:59.456Z,8
2022-08-21T03:04:59.583Z,10
2022-08-21T03:05:59.586Z,10
2022-08-21T03:06:59.507Z,8
2022-08-21T03:07:59.504Z,9
2022-08-21T03:08:59.474Z,9
2022-08-21T03:09:59.495Z,12
2022-08-21T03:10:59.462Z,10
2022-08-21T03:11:59.512Z,11
2022-08-21T03:12:59.683Z,10
2022-08-21T03:13:59.512Z,10
2022-08-21T03:14:59.526Z,9
2022-08-21T03:15:59.552Z,9
2022-08-21T03:16:59.534Z,10
2022-08-21T03:17:59.543Z,11
2022-08-21T03:18:59.478Z,10
2022-08-21T03:19:59.562Z,10
2022-08-21T03:20:59.466Z,9
2022-08-21T03:21:59.481Z,8
2022-08-21T03:22:59.889Z,8
2022-08-21T03:23:59.471Z,8
2022-08-21T03:24:59.479Z,10
2022-08-21T03:25:59.609Z,9
2022-08-21T03:26:59.606Z,12
2022-08-21T03:27:59.878Z,10
2022-08-21T03:28:59.515Z,10
2022-08-21T03:29:59.738Z,10
2022-08-21T03:30:59.544Z,10
2022-08-21T03:31:59.538Z,11
2022-08-21T03:32:59.616Z,12
2022-08-21T03:33:59.512Z,12
2022-08-21T03:34:59.545Z,9
2022-08-21T03:35:59.464Z,9
2022-08-21T03:36:59.478Z,10
2022-08-21T03:37:59.666Z,10
2022-08-21T03:38:59.465Z,12
2022-08-21T03:39:59.630Z,10
2022-08-21T03:40:59.603Z,11
2022-08-21T03:41:59.500Z,10
2022-08-21T03:42:59.676Z,9
2022-08-21T03:43:59.507Z,11
2022-08-21T03:44:59.520Z,9
2022-08-21T03:45:59.463Z,9
2022-08-21T03:46:59.499Z,13
2022-08-21T03:47:59.549Z,12
2022-08-21T03:48:59.447Z,8
2022-08-21T03:49:59.549Z,11
2022-08-21T03:50:59.575Z,11
2022-08-21T03:51:59.891Z,11
2022-08-21T03:52:59.746Z,9
2022-08-21T03:53:59.568Z,12
2022-08-21T03:54:59.571Z,10
2022-08-21T03:55:59.500Z,13
2022-08-21T03:56:59.491Z,14
2022-08-21T03:57:59.488Z,9
2022-08-21T03:58:59.499Z,11
2022-08-21T03:59:59.511Z,12
2022-08-21T04:00:59.514Z,9
2022-08-21T04:01:59.606Z,11
2022-08-21T04:02:59.696Z,10
2022-08-21T04:03:59.532Z,12
2022-08-21T04:04:59.464Z,11
2022-08-21T04:05:59.559Z,11
2022-08-21T04:06:59.581Z,11
2022-08-21T04:07:59.575Z,10
2022-08-21T04:08:59.564Z,10
2022-08-21T04:09:59.588Z,10
2022-08-21T04:10:59.622Z,10
2022-08-21T04:11:59.447Z,12
2022-08-21T04:12:59.747Z,10
2022-08-21T04:13:59.465Z,10
2022-08-21T04:14:59.494Z,10
2022-08-21T04:15:59.515Z,10
2022-08-21T04:16:59.513Z,12
2022-08-21T04:17:59.531Z,10
2022-08-21T04:18:59.533Z,11
2022-08-21T04:19:59.527Z,9
2022-08-21T04:20:59.453Z,13
2022-08-21T04:21:59.570Z,15
2022-08-21T04:22:59.744Z,9
2022-08-21T04:23:59.447Z,8
2022-08-21T04:24:59.458Z,9
2022-08-21T04:25:59.491Z,10
2022-08-21T04:26:59.455Z,12
2022-08-21T04:27:59.447Z,10
2022-08-21T04:28:59.597Z,10
2022-08-21T04:29:59.502Z,9
2022-08-21T04:30:59.527Z,12
2022-08-21T04:31:59.526Z,11
2022-08-21T04:32:59.741Z,11
2022-08-21T04:33:59.513Z,11
2022-08-21T04:34:59.520Z,10
2022-08-21T04:35:59.557Z,11
2022-08-21T04:36:59.562Z,11
2022-08-21T04:37:59.472Z,15
2022-08-21T04:38:59.560Z,9
2022-08-21T04:39:59.633Z,12
2022-08-21T04:40:59.452Z,12
2022-08-21T04:41:59.459Z,9
2022-08-21T04:42:59.808Z,9
2022-08-21T04:43:59.584Z,12
2022-08-21T04:44:59.479Z,11
2022-08-21T04:45:59.934Z,12
2022-08-21T04:46:59.503Z,12
2022-08-21T04:47:59.510Z,11
2022-08-21T04:48:59.480Z,12
2022-08-21T04:49:59.531Z,10
2022-08-21T04:50:59.540Z,11
2022-08-21T04:51:59.547Z,14
2022-08-21T04:52:59.770Z,12
2022-08-21T04:53:59.554Z,11
2022-08-21T04:54:59.542Z,13
2022-08-21T04:55:59.467Z,13
2022-08-21T04:56:59.568Z,12
2022-08-21T04:57:59.690Z,10
2022-08-21T04:58:59.501Z,11
2022-08-21T04:59:59.491Z,11
2022-08-21T05:00:59.594Z,14
2022-08-21T05:01:59.555Z,12
2022-08-21T05:02:59.680Z,10
2022-08-21T05:03:59.608Z,10
2022-08-21T05:04:59.508Z,10
2022-08-21T05:05:59.538Z,11
2022-08-21T05:06:59.571Z,9
2022-08-21T05:07:59.463Z,12
2022-08-21T05:09:01.651Z,13
2022-08-21T05:09:59.553Z,12
2022-08-21T05:11:00.653Z,13
2022-08-21T05:11:59.565Z,13
2022-08-21T05:12:59.779Z,16
2022-08-21T05:13:59.570Z,13
2022-08-21T05:14:59.601Z,14
2022-08-21T05:15:59.503Z,11
2022-08-21T05:16:59.517Z,18
2022-08-21T05:18:01.054Z,14
2022-08-21T05:18:59.510Z,10
2022-08-21T05:19:59.459Z,10
2022-08-21T05:20:59.550Z,12
2022-08-21T05:21:59.531Z,11
2022-08-21T05:22:59.897Z,12
2022-08-21T05:23:59.794Z,9
2022-08-21T05:24:59.711Z,13
2022-08-21T05:25:59.787Z,10
2022-08-21T05:26:59.630Z,11
2022-08-21T05:28:00.789Z,11
2022-08-21T05:28:59.802Z,12
2022-08-21T05:29:59.466Z,11
2022-08-21T05:30:59.488Z,12
2022-08-21T05:31:59.509Z,12
2022-08-21T05:32:59.988Z,12
2022-08-21T05:33:59.465Z,12
2022-08-21T05:34:59.495Z,10
2022-08-21T05:35:59.543Z,14
2022-08-21T05:37:02.122Z,15
2022-08-21T05:37:59.520Z,11
2022-08-21T05:38:59.528Z,12
2022-08-21T05:40:05.165Z,12
2022-08-21T05:40:59.567Z,12
2022-08-21T05:41:59.547Z,9
2022-08-21T05:42:59.836Z,11
2022-08-21T05:43:59.567Z,12
2022-08-21T05:44:59.557Z,10
2022-08-21T05:45:59.603Z,12
2022-08-21T05:46:59.517Z,9
2022-08-21T05:47:59.479Z,13
2022-08-21T05:48:59.494Z,13
2022-08-21T05:49:59.497Z,12
2022-08-21T05:50:59.524Z,12
2022-08-21T05:51:59.522Z,14
2022-08-21T05:53:07.131Z,12
2022-08-21T05:53:59.514Z,10
2022-08-21T05:54:59.490Z,14
2022-08-21T05:55:59.556Z,15
2022-08-21T05:56:59.537Z,11
2022-08-21T05:57:59.472Z,11
2022-08-21T05:58:59.665Z,14
2022-08-21T05:59:59.524Z,11
2022-08-21T06:00:59.528Z,11
2022-08-21T06:02:03.548Z,10
2022-08-21T06:02:59.793Z,12
2022-08-21T06:03:59.501Z,11
2022-08-21T06:04:59.451Z,13
2022-08-21T06:05:59.470Z,13
2022-08-21T06:06:59.542Z,11
2022-08-21T06:07:59.517Z,11
2022-08-21T06:08:59.482Z,12
2022-08-21T06:09:59.469Z,11
2022-08-21T06:10:59.518Z,13
2022-08-21T06:11:59.472Z,11
2022-08-21T06:12:59.797Z,13
2022-08-21T06:13:59.533Z,15
2022-08-21T06:14:59.513Z,12
2022-08-21T06:15:59.469Z,12
2022-08-21T06:16:59.473Z,13
2022-08-21T06:17:59.485Z,12
2022-08-21T06:19:02.600Z,11
2022-08-21T06:19:59.478Z,11
2022-08-21T06:20:59.604Z,10
2022-08-21T06:21:59.612Z,12
2022-08-21T06:22:59.661Z,11
2022-08-21T06:23:59.518Z,11
2022-08-21T06:24:59.468Z,11
2022-08-21T06:25:59.501Z,11
2022-08-21T06:26:59.476Z,12
2022-08-21T06:27:59.534Z,9
2022-08-21T06:28:59.557Z,11
2022-08-21T06:29:59.568Z,10
2022-08-21T06:30:59.576Z,11
2022-08-21T06:31:59.568Z,12
2022-08-21T06:32:59.874Z,12
2022-08-21T06:33:59.573Z,12
2022-08-21T06:34:59.598Z,13
2022-08-21T06:35:59.598Z,13
2022-08-21T06:36:59.498Z,12
2022-08-21T06:37:59.505Z,11
2022-08-21T06:38:59.456Z,11
2022-08-21T06:39:59.606Z,10
2022-08-21T06:40:59.540Z,12
2022-08-21T06:41:59.627Z,10
2022-08-21T06:42:59.712Z,12
2022-08-21T06:43:59.535Z,10
2022-08-21T06:44:59.537Z,10
2022-08-21T06:45:59.582Z,10
2022-08-21T06:46:59.507Z,11
2022-08-21T06:47:59.559Z,12
2022-08-21T06:48:59.573Z,10
2022-08-21T06:49:59.578Z,11
2022-08-21T06:50:59.596Z,11
2022-08-21T06:51:59.501Z,10
2022-08-21T06:52:59.719Z,13
2022-08-21T06:53:59.641Z,13
2022-08-21T06:54:59.507Z,11
2022-08-21T06:55:59.618Z,11
2022-08-21T06:56:59.615Z,11
2022-08-21T06:57:59.529Z,12
2022-08-21T06:58:59.547Z,13
2022-08-21T06:59:59.528Z,11
2022-08-21T07:01:01.147Z,10
2022-08-21T07:01:59.622Z,12
2022-08-21T07:02:59.825Z,10
2022-08-21T07:03:59.529Z,13
2022-08-21T07:04:59.573Z,10
2022-08-21T07:05:59.492Z,10
2022-08-21T07:06:59.492Z,12
2022-08-21T07:07:59.592Z,11
2022-08-21T07:08:59.494Z,12
2022-08-21T07:09:59.597Z,13
2022-08-21T07:10:59.626Z,12
2022-08-21T07:11:59.506Z,14
2022-08-21T07:13:01.042Z,12
2022-08-21T07:13:59.528Z,11
2022-08-21T07:14:59.533Z,10
2022-08-21T07:16:03.827Z,12
2022-08-21T07:16:59.766Z,14
2022-08-21T07:17:59.555Z,9
2022-08-21T07:18:59.502Z,13
2022-08-21T07:19:59.474Z,14
2022-08-21T07:20:59.590Z,10
2022-08-21T07:21:59.598Z,11
2022-08-21T07:22:59.805Z,9
2022-08-21T07:23:59.600Z,12
2022-08-21T07:24:59.603Z,9
2022-08-21T07:25:59.510Z,10
2022-08-21T07:26:59.514Z,11
2022-08-21T07:27:59.513Z,10
2022-08-21T07:28:59.522Z,12
2022-08-21T07:29:59.484Z,12
2022-08-21T07:30:59.550Z,10
2022-08-21T07:31:59.542Z,11
2022-08-21T07:32:59.805Z,10
2022-08-21T07:33:59.558Z,9
2022-08-21T07:34:59.558Z,13
2022-08-21T07:35:59.529Z,12
2022-08-21T07:36:59.503Z,9
2022-08-21T07:37:59.536Z,11
2022-08-21T07:38:59.532Z,14
2022-08-21T07:39:59.624Z,15
2022-08-21T07:40:59.498Z,14
2022-08-21T07:41:59.485Z,17
2022-08-21T07:42:59.747Z,13
2022-08-21T07:43:59.514Z,15
2022-08-21T07:44:59.533Z,14
2022-08-21T07:45:59.636Z,14
2022-08-21T07:46:59.540Z,16
2022-08-21T07:47:59.548Z,16
2022-08-21T07:48:59.513Z,16
2022-08-21T07:49:59.557Z,16
2022-08-21T07:50:59.595Z,17
2022-08-21T07:51:59.547Z,15
2022-08-21T07:52:59.721Z,15
2022-08-21T07:53:59.574Z,13
2022-08-21T07:55:02.850Z,16
2022-08-21T07:55:59.524Z,15
2022-08-21T07:56:59.506Z,16
2022-08-21T07:57:59.494Z,16
2022-08-21T07:58:59.575Z,12
2022-08-21T07:59:59.521Z,15
2022-08-21T08:00:59.588Z,9
2022-08-21T08:01:59.494Z,14
2022-08-21T08:02:59.874Z,16
2022-08-21T08:03:59.480Z,10
2022-08-21T08:04:59.488Z,11
2022-08-21T08:05:59.552Z,15
2022-08-21T08:06:59.564Z,16
2022-08-21T08:07:59.507Z,14
2022-08-21T08:08:59.485Z,11
2022-08-21T08:09:59.491Z,11
2022-08-21T08:10:59.492Z,13
2022-08-21T08:11:59.594Z,15
2022-08-21T08:12:59.874Z,17
2022-08-21T08:13:59.528Z,15
2022-08-21T08:14:59.503Z,11
2022-08-21T08:15:59.518Z,15
2022-08-21T08:16:59.624Z,11
2022-08-21T08:17:59.497Z,15
2022-08-21T08:18:59.528Z,14
2022-08-21T08:19:59.644Z,13
2022-08-21T08:20:59.662Z,12
2022-08-21T08:21:59.572Z,10
2022-08-21T08:22:59.599Z,16
2022-08-21T08:23:59.603Z,11
2022-08-21T08:24:59.567Z,10
2022-08-21T08:25:59.567Z,12
2022-08-21T08:26:59.533Z,15
2022-08-21T08:27:59.586Z,17
2022-08-21T08:28:59.501Z,17
2022-08-21T08:29:59.498Z,12
2022-08-21T08:30:59.522Z,16
2022-08-21T08:31:59.516Z,17
2022-08-21T08:32:59.766Z,15
2022-08-21T08:33:59.633Z,18
2022-08-21T08:34:59.804Z,16
2022-08-21T08:36:03.391Z,15
2022-08-21T08:36:59.909Z,12
2022-08-21T08:37:59.553Z,13
2022-08-21T08:38:59.560Z,14
2022-08-21T08:39:59.547Z,10
2022-08-21T08:40:59.555Z,12
2022-08-21T08:41:59.581Z,12
2022-08-21T08:42:59.887Z,14
2022-08-21T08:43:59.494Z,13
2022-08-21T08:44:59.601Z,11
2022-08-21T08:45:59.507Z,11
2022-08-21T08:46:59.514Z,12
2022-08-21T08:47:59.619Z,15
2022-08-21T08:48:59.629Z,10
2022-08-21T08:49:59.516Z,13
2022-08-21T08:50:59.539Z,13
2022-08-21T08:51:59.553Z,17
2022-08-21T08:52:59.707Z,12
2022-08-21T08:53:59.556Z,17
2022-08-21T08:54:59.554Z,10
2022-08-21T08:55:59.574Z,12
2022-08-21T08:56:59.585Z,13
2022-08-21T08:57:59.588Z,13
2022-08-21T08:58:59.578Z,14
2022-08-21T08:59:59.513Z,9
2022-08-21T09:00:59.681Z,13
2022-08-21T09:01:59.595Z,13
2022-08-21T09:02:59.863Z,12
2022-08-21T09:03:59.564Z,11
2022-08-21T09:04:59.511Z,12
2022-08-21T09:05:59.561Z,10
2022-08-21T09:06:59.514Z,14
2022-08-21T09:07:59.502Z,11
2022-08-21T09:08:59.654Z,10
2022-08-21T09:09:59.552Z,16
2022-08-21T09:10:59.598Z,12
2022-08-21T09:11:59.578Z,12
2022-08-21T09:12:59.748Z,13
2022-08-21T09:13:59.588Z,11
2022-08-21T09:14:59.585Z,14
2022-08-21T09:15:59.634Z,7
2022-08-21T09:16:59.602Z,9
2022-08-21T09:17:59.612Z,11
2022-08-21T09:18:59.512Z,10
2022-08-21T09:19:59.499Z,9
2022-08-21T09:20:59.509Z,10
2022-08-21T09:21:59.544Z,12
2022-08-21T09:22:59.923Z,9
2022-08-21T09:23:59.644Z,9
2022-08-21T09:24:59.554Z,13
2022-08-21T09:25:59.559Z,13
2022-08-21T09:26:59.563Z,8
2022-08-21T09:27:59.571Z,11
2022-08-21T09:28:59.572Z,9
2022-08-21T09:29:59.600Z,9
2022-08-21T09:30:59.595Z,12
2022-08-21T09:31:59.505Z,9
2022-08-21T09:32:59.969Z,11
2022-08-21T09:33:59.611Z,10
2022-08-21T09:34:59.610Z,9
2022-08-21T09:35:59.634Z,7
2022-08-21T09:36:59.659Z,12
2022-08-21T09:37:59.624Z,8
2022-08-21T09:38:59.538Z,6
2022-08-21T09:39:59.597Z,11
2022-08-21T09:40:59.577Z,8
2022-08-21T09:41:59.501Z,11
2022-08-21T09:42:59.791Z,8
2022-08-21T09:43:59.558Z,8
2022-08-21T09:44:59.573Z,9
2022-08-21T09:45:59.531Z,8
2022-08-21T09:46:59.585Z,7
2022-08-21T09:47:59.592Z,11
2022-08-21T09:48:59.594Z,9
2022-08-21T09:49:59.603Z,10
2022-08-21T09:50:59.648Z,9
2022-08-21T09:51:59.568Z,9
2022-08-21T09:52:59.901Z,9
2022-08-21T09:53:59.536Z,9
2022-08-21T09:54:59.643Z,9
2022-08-21T09:55:59.557Z,8
2022-08-21T09:56:59.548Z,10
2022-08-21T09:57:59.565Z,11
2022-08-21T09:58:59.571Z,8
2022-08-21T09:59:59.568Z,7
2022-08-21T10:00:59.687Z,10
2022-08-21T10:01:59.570Z,9
2022-08-21T10:02:59.908Z,10
2022-08-21T10:03:59.584Z,8
2022-08-21T10:04:59.588Z,8
2022-08-21T10:05:59.614Z,8
2022-08-21T10:06:59.627Z,10
2022-08-21T10:07:59.516Z,9
2022-08-21T10:08:59.557Z,11
2022-08-21T10:09:59.520Z,11
2022-08-21T10:10:59.530Z,10
2022-08-21T10:11:59.577Z,9
2022-08-21T10:12:59.898Z,9
2022-08-21T10:13:59.521Z,9
2022-08-21T10:14:59.563Z,7
2022-08-21T10:15:59.586Z,10
2022-08-21T10:16:59.569Z,7
2022-08-21T10:17:59.583Z,8
2022-08-21T10:18:59.583Z,6
2022-08-21T10:19:59.605Z,7
2022-08-21T10:20:59.614Z,8
2022-08-21T10:21:59.633Z,11
2022-08-21T10:22:59.790Z,7
2022-08-21T10:23:59.517Z,7
2022-08-21T10:24:59.515Z,7
2022-08-21T10:26:13.582Z,9
2022-08-21T10:26:59.605Z,9
2022-08-21T10:27:59.520Z,6
2022-08-21T10:28:59.545Z,9
2022-08-21T10:29:59.525Z,7
2022-08-21T10:30:59.798Z,8
2022-08-21T10:31:59.865Z,13
2022-08-21T10:33:00.057Z,8
2022-08-21T10:33:59.579Z,8
2022-08-21T10:34:59.514Z,6
2022-08-21T10:35:59.610Z,7
2022-08-21T10:36:59.622Z,7
2022-08-21T10:37:59.522Z,6
2022-08-21T10:39:25.235Z,7
2022-08-21T10:39:59.734Z,7
2022-08-21T10:40:59.638Z,8
2022-08-21T10:41:59.843Z,8
2022-08-21T10:42:59.711Z,7
2022-08-21T10:43:59.538Z,8
2022-08-21T10:44:59.553Z,7
2022-08-21T10:45:59.569Z,7
2022-08-21T10:46:59.565Z,9
2022-08-21T10:47:59.591Z,5
2022-08-21T10:48:59.679Z,10
2022-08-21T10:49:59.585Z,6
2022-08-21T10:50:59.526Z,7
2022-08-21T10:51:59.550Z,8
2022-08-21T10:52:59.743Z,4
2022-08-21T10:53:59.607Z,5
2022-08-21T10:54:59.864Z,7
2022-08-21T10:55:59.645Z,7
2022-08-21T10:56:59.981Z,8
2022-08-21T10:57:59.539Z,4
2022-08-21T10:58:59.544Z,5
2022-08-21T10:59:59.533Z,5
2022-08-21T11:00:59.653Z,5
2022-08-21T11:01:59.553Z,5
2022-08-21T11:02:59.885Z,8
2022-08-21T11:03:59.556Z,9
2022-08-21T11:04:59.583Z,7
2022-08-21T11:05:59.615Z,6
2022-08-21T11:06:59.610Z,8
2022-08-21T11:08:01.024Z,6
2022-08-21T11:08:59.604Z,5
2022-08-21T11:10:00.185Z,5
2022-08-21T11:11:00.281Z,6
2022-08-21T11:12:10.905Z,6
2022-08-21T11:12:59.792Z,6
2022-08-21T11:13:59.630Z,6
2022-08-21T11:14:59.640Z,6
2022-08-21T11:15:59.660Z,6
2022-08-21T11:16:59.561Z,5
2022-08-21T11:17:59.563Z,7
2022-08-21T11:18:59.577Z,5
2022-08-21T11:19:59.564Z,7
2022-08-21T11:20:59.599Z,7
2022-08-21T11:21:59.709Z,6
2022-08-21T11:23:03.805Z,7
2022-08-21T11:23:59.535Z,6
2022-08-21T11:24:59.535Z,7
2022-08-21T11:25:59.629Z,7
2022-08-21T11:26:59.533Z,5
2022-08-21T11:27:59.620Z,6
2022-08-21T11:28:59.631Z,4
2022-08-21T11:29:59.631Z,8
2022-08-21T11:30:59.551Z,5
2022-08-21T11:31:59.551Z,6
2022-08-21T11:32:59.924Z,5
2022-08-21T11:33:59.534Z,5
2022-08-21T11:34:59.595Z,7
2022-08-21T11:35:59.608Z,6
2022-08-21T11:36:59.604Z,6
2022-08-21T11:37:59.534Z,6
2022-08-21T11:38:59.588Z,6
2022-08-21T11:39:59.559Z,6
2022-08-21T11:40:59.565Z,6
2022-08-21T11:41:59.606Z,5
2022-08-21T11:42:59.805Z,6
2022-08-21T11:43:59.587Z,4
2022-08-21T11:44:59.534Z,8
2022-08-21T11:45:59.662Z,7
2022-08-21T11:46:59.532Z,6
2022-08-21T11:47:59.523Z,9
2022-08-21T11:48:59.659Z,4
2022-08-21T11:49:59.609Z,4
2022-08-21T11:50:59.700Z,6
2022-08-21T11:51:59.601Z,5
2022-08-21T11:52:59.737Z,5
2022-08-21T11:53:59.572Z,4
2022-08-21T11:54:59.541Z,7
2022-08-21T11:55:59.619Z,5
2022-08-21T11:56:59.569Z,7
2022-08-21T11:57:59.604Z,8
2022-08-21T11:58:59.602Z,5
2022-08-21T11:59:59.532Z,4
2022-08-21T12:00:59.555Z,9
2022-08-21T12:01:59.585Z,5
2022-08-21T12:02:59.799Z,6
2022-08-21T12:03:59.656Z,6
2022-08-21T12:04:59.567Z,4
2022-08-21T12:05:59.668Z,4
2022-08-21T12:06:59.556Z,6
2022-08-21T12:08:01.081Z,6
2022-08-21T12:08:59.582Z,5
2022-08-21T12:09:59.536Z,5
2022-08-21T12:10:59.695Z,5
2022-08-21T12:11:59.605Z,5
2022-08-21T12:12:59.786Z,4
2022-08-21T12:13:59.606Z,4
2022-08-21T12:14:59.603Z,4
2022-08-21T12:15:59.624Z,4
2022-08-21T12:16:59.618Z,5
2022-08-21T12:17:59.642Z,5
2022-08-21T12:18:59.603Z,6
2022-08-21T12:19:59.646Z,6
2022-08-21T12:20:59.667Z,4
2022-08-21T12:21:59.583Z,4
2022-08-21T12:22:59.769Z,6
2022-08-21T12:23:59.781Z,6
2022-08-21T12:24:59.869Z,5
2022-08-21T12:25:59.820Z,4
2022-08-21T12:26:59.596Z,4
2022-08-21T12:27:59.592Z,5
2022-08-21T12:28:59.593Z,3
2022-08-21T12:29:59.620Z,6
2022-08-21T12:30:59.638Z,3
2022-08-21T12:31:59.632Z,6
2022-08-21T12:32:59.848Z,3
2022-08-21T12:33:59.633Z,6
2022-08-21T12:34:59.646Z,4
2022-08-21T12:35:59.684Z,4
2022-08-21T12:36:59.572Z,3
2022-08-21T12:37:59.542Z,4
2022-08-21T12:38:59.667Z,4
2022-08-21T12:39:59.662Z,5
2022-08-21T12:40:59.594Z,4
2022-08-21T12:42:02.011Z,4
2022-08-21T12:42:59.743Z,4
2022-08-21T12:43:59.594Z,5
2022-08-21T12:44:59.594Z,5
2022-08-21T12:45:59.633Z,5
2022-08-21T12:46:59.621Z,3
2022-08-21T12:47:59.548Z,3
2022-08-21T12:48:59.551Z,4
2022-08-21T12:49:59.633Z,4
2022-08-21T12:50:59.635Z,3
2022-08-21T12:51:59.848Z,4
2022-08-21T12:52:59.895Z,6
2022-08-21T12:53:59.655Z,5
2022-08-21T12:54:59.685Z,7
2022-08-21T12:55:59.789Z,4
2022-08-21T12:56:59.630Z,3
2022-08-21T12:57:59.571Z,5
2022-08-21T12:58:59.563Z,6
2022-08-21T12:59:59.693Z,5
2022-08-21T13:00:59.777Z,5
2022-08-21T13:02:00.047Z,4
2022-08-21T13:02:59.928Z,3
2022-08-21T13:04:04.520Z,6
2022-08-21T13:04:59.630Z,5
2022-08-21T13:05:59.753Z,3
2022-08-21T13:06:59.612Z,4
2022-08-21T13:07:59.649Z,5
2022-08-21T13:08:59.561Z,9
2022-08-21T13:09:59.664Z,4
2022-08-21T13:10:59.588Z,4
2022-08-21T13:11:59.569Z,5
2022-08-21T13:12:59.949Z,4
2022-08-21T13:14:02.848Z,4
2022-08-21T13:14:59.717Z,6
2022-08-21T13:15:59.573Z,4
2022-08-21T13:16:59.598Z,3
2022-08-21T13:17:59.613Z,3
2022-08-21T13:18:59.627Z,4
2022-08-21T13:19:59.621Z,3
2022-08-21T13:20:59.742Z,5
2022-08-21T13:21:59.636Z,6
2022-08-21T13:22:59.763Z,5
2022-08-21T13:23:59.643Z,4
2022-08-21T13:24:59.569Z,4
2022-08-21T13:25:59.682Z,4
2022-08-21T13:26:59.663Z,5
2022-08-21T13:27:59.688Z,5
2022-08-21T13:28:59.590Z,5
2022-08-21T13:29:59.560Z,4
2022-08-21T13:30:59.707Z,4
2022-08-21T13:31:59.598Z,4
2022-08-21T13:32:59.811Z,4
2022-08-21T13:33:59.711Z,3
2022-08-21T13:34:59.719Z,4
2022-08-21T13:35:59.637Z,4
2022-08-21T13:36:59.564Z,3
2022-08-21T13:37:59.653Z,3
2022-08-21T13:38:59.649Z,2
2022-08-21T13:39:59.650Z,4
2022-08-21T13:40:59.667Z,4
2022-08-21T13:41:59.658Z,3
2022-08-21T13:42:59.836Z,4
2022-08-21T13:43:59.680Z,4
2022-08-21T13:44:59.716Z,6
2022-08-21T13:45:59.595Z,4
2022-08-21T13:46:59.593Z,4
2022-08-21T13:47:59.616Z,5
2022-08-21T13:48:59.620Z,4
2022-08-21T13:49:59.559Z,5
2022-08-21T13:50:59.624Z,3
2022-08-21T13:51:59.622Z,4
2022-08-21T13:52:59.861Z,4
2022-08-21T13:53:59.632Z,3
2022-08-21T13:54:59.641Z,4
2022-08-21T13:56:00.976Z,4
2022-08-21T13:56:59.652Z,4
2022-08-21T13:57:59.661Z,3
2022-08-21T13:58:59.656Z,5
2022-08-21T13:59:59.596Z,3
2022-08-21T14:00:59.786Z,5
2022-08-21T14:01:59.776Z,3
2022-08-21T14:02:59.868Z,14
2022-08-21T14:03:59.589Z,4
2022-08-21T14:04:59.604Z,6
2022-08-21T14:06:00.388Z,5
2022-08-21T14:06:59.613Z,5
2022-08-21T14:07:59.584Z,5
2022-08-21T14:08:59.726Z,6
2022-08-21T14:09:59.646Z,4
2022-08-21T14:10:59.649Z,4
2022-08-21T14:11:59.642Z,3
2022-08-21T14:12:59.964Z,3
2022-08-21T14:13:59.586Z,5
2022-08-21T14:14:59.637Z,4
2022-08-21T14:15:59.644Z,5
2022-08-21T14:16:59.673Z,4
2022-08-21T14:17:59.683Z,5
2022-08-21T14:19:03.554Z,4
2022-08-21T14:19:59.779Z,3
2022-08-21T14:20:59.617Z,4
2022-08-21T14:21:59.580Z,4
2022-08-21T14:22:59.954Z,4
2022-08-21T14:23:59.733Z,3
2022-08-21T14:24:59.633Z,6
2022-08-21T14:25:59.773Z,3
2022-08-21T14:26:59.846Z,5
2022-08-21T14:27:59.863Z,4
2022-08-21T14:28:59.662Z,6
2022-08-21T14:29:59.672Z,3
2022-08-21T14:30:59.690Z,3